Time;durP1;ratioP1;P1;durP2;ratioP2;P2;SDS_P1;SDS_P2;PMS_P1;PMS_P2;Temp;Humidity;BMP_temperature;BMP_pressure;BME280_temperature;BME280_humidity;BME280_pressure;Samples;Min_cycle;Max_cycle;Signal;HPM_P1;HPM_P2
2023/04/17 00:01:02;;;;;;;;;;;16.20;91.20;;;;;;5021007;28;19909;-87
2023/04/17 00:03:30;;;;;;;;;;;16.20;91.20;;;;;;5020788;28;19909;-87
2023/04/17 00:05:57;;;;;;;;;;;16.20;91.20;;;;;;5021764;28;19909;-87
2023/04/17 00:08:22;;;;;;;;;;;16.20;91.20;;;;;;5038362;28;19909;-87
2023/04/17 00:10:48;;;;;;;;;;;16.20;91.20;;;;;;5038313;28;19916;-87
2023/04/17 00:13:14;;;;;;;;;;;16.20;91.20;;;;;;5020501;28;20180;-87
2023/04/17 00:15:40;;;;;;;;;;;16.20;91.20;;;;;;5022090;28;20055;-87
2023/04/17 00:18:06;;;;;;;;;;;16.20;91.20;;;;;;5019869;28;19914;-87
2023/04/17 00:20:31;;;;;;;;;;;16.20;91.20;;;;;;5020116;28;19936;-87
2023/04/17 00:22:57;;;;;;;;;;;16.20;91.20;;;;;;5019630;28;19920;-87
2023/04/17 00:25:23;;;;;;;;;;;16.20;91.20;;;;;;5021022;28;19917;-87
2023/04/17 00:27:49;;;;;;;;;;;16.20;91.20;;;;;;5037504;28;20309;-87
2023/04/17 00:30:15;;;;;;;;;;;16.20;91.20;;;;;;5021214;28;20343;-87
2023/04/17 00:32:41;;;;;;;;;;;16.20;91.20;;;;;;5021218;28;19909;-88
2023/04/17 00:35:06;;;;;;;;;;;16.20;91.20;;;;;;5020901;28;19962;-87
2023/04/17 00:37:32;;;;;;;;;;;16.20;91.20;;;;;;5020347;28;19975;-87
2023/04/17 00:39:57;;;;;;;;;;;16.20;91.20;;;;;;5020955;28;19921;-87
2023/04/17 00:42:23;;;;;;;;;;;16.20;91.20;;;;;;5019591;28;20135;-87
2023/04/17 00:44:48;;;;;;;;;;;16.10;91.20;;;;;;5037424;28;20294;-87
2023/04/17 00:47:14;;;;;;;;;;;16.10;91.20;;;;;;5020712;28;20011;-87
2023/04/17 00:49:40;;;;;;;;;;;16.10;91.20;;;;;;5020181;28;19917;-87
2023/04/17 00:52:06;;;;;;;;;;;16.10;91.20;;;;;;5021484;28;19909;-87
2023/04/17 00:54:31;;;;;;;;;;;16.20;91.20;;;;;;5021289;28;19916;-87
2023/04/17 00:56:57;;;;;;;;;;;16.10;91.20;;;;;;5021099;28;20253;-87
2023/04/17 00:59:25;;;;;;;;;;;16.10;91.20;;;;;;5020917;28;19920;-87
2023/04/17 01:01:50;;;;;;;;;;;16.10;91.20;;;;;;5037222;28;20279;-87
2023/04/17 01:04:16;;;;;;;;;;;16.10;91.20;;;;;;5020412;28;20189;-87
2023/04/17 01:06:42;;;;;;;;;;;16.10;91.20;;;;;;5028353;28;19917;-87
2023/04/17 01:09:07;;;;;;;;;;;16.10;91.20;;;;;;5020007;28;19910;-87
2023/04/17 01:11:33;;;;;;;;;;;16.10;91.30;;;;;;5036867;28;19913;-87
2023/04/17 01:13:59;;;;;;;;;;;16.10;91.30;;;;;;5019632;28;20290;-87
2023/04/17 01:16:26;;;;;;;;;;;16.10;91.30;;;;;;5035889;28;19910;-87
2023/04/17 01:18:52;;;;;;;;;;;16.10;91.30;;;;;;5019962;28;19975;-87
2023/04/17 01:21:17;;;;;;;;;;;16.10;91.30;;;;;;5019827;28;19941;-87
2023/04/17 01:23:45;;;;;;;;;;;16.10;91.30;;;;;;5036706;28;20187;-87
2023/04/17 01:26:14;;;;;;;;;;;16.10;91.30;;;;;;5019785;28;19915;-87
2023/04/17 01:28:40;;;;;;;;;;;16.10;91.30;;;;;;5020266;28;20226;-87
2023/04/17 01:31:06;;;;;;;;;;;16.10;91.30;;;;;;5018627;28;19986;-87
2023/04/17 01:33:31;;;;;;;;;;;16.10;91.30;;;;;;5018788;28;19921;-87
2023/04/17 01:35:57;;;;;;;;;;;16.00;91.30;;;;;;5017625;28;19956;-87
2023/04/17 01:38:22;;;;;;;;;;;16.00;91.30;;;;;;5017117;28;20255;-87
2023/04/17 01:40:48;;;;;;;;;;;16.00;91.30;;;;;;5016677;28;19917;-87
2023/04/17 01:43:14;;;;;;;;;;;16.00;91.30;;;;;;5016040;28;19928;-87
2023/04/17 01:45:39;;;;;;;;;;;16.10;91.30;;;;;;5017720;28;20018;-88
2023/04/17 01:48:05;;;;;;;;;;;16.00;91.30;;;;;;5017380;28;19909;-87
2023/04/17 01:50:31;;;;;;;;;;;16.00;91.30;;;;;;5034785;28;19909;-87
2023/04/17 01:52:56;;;;;;;;;;;16.00;91.30;;;;;;5019220;28;19979;-87
2023/04/17 01:55:22;;;;;;;;;;;16.00;91.30;;;;;;5019006;28;19914;-87
2023/04/17 01:57:48;;;;;;;;;;;16.00;91.30;;;;;;5019348;28;19978;-87
2023/04/17 02:00:24;;;;;;;;;;;16.00;91.30;;;;;;5017475;28;19945;-88
2023/04/17 02:02:49;;;;;;;;;;;16.00;91.30;;;;;;5035801;28;19920;-87
2023/04/17 02:05:15;;;;;;;;;;;16.00;91.40;;;;;;5019139;28;19913;-87
2023/04/17 02:07:40;;;;;;;;;;;16.00;91.40;;;;;;5018398;28;19912;-87
2023/04/17 02:10:06;;;;;;;;;;;16.00;91.40;;;;;;5017490;28;19963;-88
2023/04/17 02:12:32;;;;;;;;;;;16.00;91.40;;;;;;5034799;28;19999;-87
2023/04/17 02:14:59;;;;;;;;;;;16.00;91.40;;;;;;5035415;28;19917;-87
2023/04/17 02:17:26;;;;;;;;;;;15.90;91.40;;;;;;5019047;28;19919;-87
2023/04/17 02:19:51;;;;;;;;;;;15.90;91.40;;;;;;5035669;28;20180;-87
2023/04/17 02:22:17;;;;;;;;;;;15.90;91.40;;;;;;5019217;28;20282;-87
2023/04/17 02:24:43;;;;;;;;;;;16.00;91.50;;;;;;5033965;28;20020;-87
2023/04/17 02:27:08;;;;;;;;;;;15.90;91.70;;;;;;5035201;28;19917;-87
2023/04/17 02:29:34;;;;;;;;;;;15.90;91.40;;;;;;5017266;28;19909;-87
2023/04/17 02:31:59;;;;;;;;;;;15.90;91.40;;;;;;5018802;28;19910;-88
2023/04/17 02:34:25;;;;;;;;;;;15.90;91.50;;;;;;5018787;28;20260;-87
2023/04/17 02:36:51;;;;;;;;;;;15.90;91.50;;;;;;5017483;28;20130;-87
2023/04/17 02:39:16;;;;;;;;;;;15.90;91.50;;;;;;5018940;28;19913;-87
2023/04/17 02:41:42;;;;;;;;;;;15.90;91.50;;;;;;5035828;28;19909;-87
2023/04/17 02:44:07;;;;;;;;;;;15.90;91.50;;;;;;5018518;28;19986;-86
2023/04/17 02:46:33;;;;;;;;;;;15.90;91.50;;;;;;5035222;28;19913;-87
2023/04/17 02:48:59;;;;;;;;;;;15.90;91.50;;;;;;5018033;28;20267;-87
2023/04/17 02:51:25;;;;;;;;;;;15.90;91.50;;;;;;5017781;28;19909;-87
2023/04/17 02:53:57;;;;;;;;;;;15.90;91.60;;;;;;5018947;28;20174;-87
2023/04/17 02:56:23;;;;;;;;;;;15.80;91.50;;;;;;5017666;28;19909;-87
2023/04/17 02:58:49;;;;;;;;;;;15.80;91.50;;;;;;5019503;28;20065;-87
2023/04/17 03:01:14;;;;;;;;;;;15.80;91.50;;;;;;5017882;28;20079;-87
2023/04/17 03:03:40;;;;;;;;;;;15.80;91.50;;;;;;5034588;28;19914;-87
2023/04/17 03:06:07;;;;;;;;;;;15.80;91.50;;;;;;5035293;28;19909;-87
2023/04/17 03:08:34;;;;;;;;;;;15.80;91.60;;;;;;5018537;28;19924;-87
2023/04/17 03:11:03;;;;;;;;;;;15.80;91.60;;;;;;5017879;28;20275;-87
2023/04/17 03:13:29;;;;;;;;;;;15.80;91.60;;;;;;5021852;28;20283;-87
2023/04/17 03:15:54;;;;;;;;;;;15.80;91.60;;;;;;5020726;28;19917;-87
2023/04/17 03:18:20;;;;;;;;;;;15.80;91.60;;;;;;5020574;28;19983;-87
2023/04/17 03:20:46;;;;;;;;;;;15.80;91.60;;;;;;5037647;28;19910;-87
2023/04/17 03:23:11;;;;;;;;;;;15.70;91.60;;;;;;5037155;28;19910;-87
2023/04/17 03:25:37;;;;;;;;;;;15.70;91.60;;;;;;5021608;28;20146;-87
2023/04/17 03:28:03;;;;;;;;;;;15.70;91.60;;;;;;5021117;28;19915;-87
2023/04/17 03:30:28;;;;;;;;;;;15.70;91.50;;;;;;5020582;28;19936;-87
2023/04/17 03:32:54;;;;;;;;;;;15.70;91.60;;;;;;5037262;28;19909;-87
2023/04/17 03:35:19;;;;;;;;;;;15.70;91.60;;;;;;5021262;28;19990;-87
2023/04/17 03:37:45;;;;;;;;;;;15.70;91.60;;;;;;5019546;28;20003;-87
2023/04/17 03:40:11;;;;;;;;;;;15.70;91.60;;;;;;5018946;28;19909;-87
2023/04/17 03:42:36;;;;;;;;;;;15.70;91.60;;;;;;5019530;28;20375;-87
2023/04/17 03:45:03;;;;;;;;;;;15.70;91.60;;;;;;5037788;28;19909;-87
2023/04/17 03:47:34;;;;;;;;;;;15.70;91.60;;;;;;5018359;28;19913;-87
2023/04/17 03:49:59;;;;;;;;;;;15.70;91.60;;;;;;5035699;28;19915;-87
2023/04/17 03:52:25;;;;;;;;;;;15.70;91.60;;;;;;5019443;28;19917;-87
2023/04/17 03:54:51;;;;;;;;;;;15.70;91.60;;;;;;5019815;28;19917;-87
2023/04/17 03:57:16;;;;;;;;;;;15.70;91.60;;;;;;5020096;28;19974;-87
2023/04/17 03:59:42;;;;;;;;;;;15.70;91.60;;;;;;5019034;28;19917;-87
2023/04/17 04:02:07;;;;;;;;;;;15.70;91.60;;;;;;5035774;28;20215;-87
2023/04/17 04:04:33;;;;;;;;;;;15.70;91.60;;;;;;5035442;28;20160;-87
2023/04/17 04:07:00;;;;;;;;;;;15.60;91.50;;;;;;5017413;28;19941;-87
2023/04/17 04:09:26;;;;;;;;;;;15.60;91.60;;;;;;5034027;28;20275;-88
2023/04/17 04:11:52;;;;;;;;;;;15.60;91.60;;;;;;5016382;28;20164;-87
2023/04/17 04:14:18;;;;;;;;;;;15.60;91.60;;;;;;5017387;28;19917;-88
2023/04/17 04:16:43;;;;;;;;;;;15.60;91.60;;;;;;5018208;28;19920;-87
2023/04/17 04:19:09;;;;;;;;;;;15.60;91.60;;;;;;5017342;28;19913;-87
2023/04/17 04:21:34;;;;;;;;;;;15.60;91.60;;;;;;5017811;28;19917;-87
2023/04/17 04:24:01;;;;;;;;;;;15.60;91.60;;;;;;5017716;28;19979;-88
2023/04/17 04:26:27;;;;;;;;;;;15.60;91.60;;;;;;5020067;28;20195;-87
2023/04/17 04:28:52;;;;;;;;;;;15.60;91.60;;;;;;5018741;28;20279;-87
2023/04/17 04:31:18;;;;;;;;;;;15.60;91.60;;;;;;5018168;28;19917;-87
2023/04/17 04:33:44;;;;;;;;;;;15.60;91.60;;;;;;5016683;28;20329;-87
2023/04/17 04:36:12;;;;;;;;;;;15.60;91.60;;;;;;5024541;28;20204;-87
2023/04/17 04:38:41;;;;;;;;;;;15.60;91.60;;;;;;5014657;28;19913;-87
2023/04/17 04:41:09;;;;;;;;;;;15.50;91.50;;;;;;5015240;28;19909;-87
2023/04/17 04:43:37;;;;;;;;;;;15.60;91.60;;;;;;5030286;28;19932;-87
2023/04/17 04:46:03;;;;;;;;;;;15.60;91.60;;;;;;5014538;28;20085;-87
2023/04/17 04:48:28;;;;;;;;;;;15.50;91.50;;;;;;5013489;28;19975;-87
2023/04/17 04:50:57;;;;;;;;;;;15.60;91.60;;;;;;5013377;28;19916;-87
2023/04/17 04:53:23;;;;;;;;;;;15.50;91.50;;;;;;5031795;28;19917;-87
2023/04/17 04:55:49;;;;;;;;;;;15.50;91.50;;;;;;5013599;28;20099;-87
2023/04/17 04:58:15;;;;;;;;;;;15.50;91.50;;;;;;5029962;28;20015;-87
2023/04/17 05:00:40;;;;;;;;;;;15.50;91.50;;;;;;5014752;28;19913;-87
2023/04/17 05:03:06;;;;;;;;;;;15.60;91.60;;;;;;5015470;28;19948;-88
2023/04/17 05:05:32;;;;;;;;;;;15.50;91.50;;;;;;5014306;28;19956;-88
2023/04/17 05:07:58;;;;;;;;;;;15.50;91.50;;;;;;5014173;28;20283;-88
2023/04/17 05:10:23;;;;;;;;;;;15.50;91.50;;;;;;5014546;28;20160;-88
2023/04/17 05:12:49;;;;;;;;;;;15.50;91.50;;;;;;5013017;28;20256;-88
2023/04/17 05:15:16;;;;;;;;;;;15.50;91.50;;;;;;5027869;28;19974;-88
2023/04/17 05:17:42;;;;;;;;;;;15.50;91.50;;;;;;5011856;28;20283;-88
2023/04/17 05:20:11;;;;;;;;;;;15.50;91.50;;;;;;5011636;28;19909;-88
2023/04/17 05:22:36;;;;;;;;;;;15.50;91.60;;;;;;5011673;28;19909;-88
2023/04/17 05:25:03;;;;;;;;;;;15.50;91.50;;;;;;5010869;28;19916;-87
2023/04/17 05:27:29;;;;;;;;;;;15.50;91.60;;;;;;5011493;28;19909;-87
2023/04/17 05:29:55;;;;;;;;;;;15.50;91.60;;;;;;5010197;28;19917;-87
2023/04/17 05:32:20;;;;;;;;;;;15.50;91.60;;;;;;5010566;28;19925;-87
2023/04/17 05:34:46;;;;;;;;;;;15.50;91.60;;;;;;5024484;28;20301;-87
2023/04/17 05:37:12;;;;;;;;;;;15.50;91.60;;;;;;5007609;28;20260;-87
2023/04/17 05:39:37;;;;;;;;;;;15.50;91.80;;;;;;5007349;28;19913;-87
2023/04/17 05:42:03;;;;;;;;;;;15.50;91.90;;;;;;5006928;28;19916;-87
2023/04/17 05:44:29;;;;;;;;;;;15.50;91.90;;;;;;5024033;28;20066;-87
2023/04/17 05:47:01;;;;;;;;;;;15.50;92.00;;;;;;5008570;28;19970;-87
2023/04/17 05:49:28;;;;;;;;;;;15.50;92.10;;;;;;5006162;28;19944;-87
2023/04/17 05:51:53;;;;;;;;;;;15.50;92.30;;;;;;5006738;28;19960;-88
2023/04/17 05:54:19;;;;;;;;;;;15.50;92.40;;;;;;5006747;28;20271;-88
2023/04/17 05:56:45;;;;;;;;;;;15.50;92.30;;;;;;5007847;28;19917;-88
2023/04/17 05:59:10;;;;;;;;;;;15.60;92.40;;;;;;5005648;28;20037;-87
2023/04/17 06:01:36;;;;;;;;;;;15.50;92.20;;;;;;5007650;28;19994;-88
2023/04/17 06:04:01;;;;;;;;;;;15.50;92.20;;;;;;5007512;28;19920;-88
2023/04/17 06:06:27;;;;;;;;;;;15.50;92.20;;;;;;5003176;28;20120;-88
2023/04/17 06:08:53;;;;;;;;;;;15.50;92.10;;;;;;5002642;28;20078;-88
2023/04/17 06:11:19;;;;;;;;;;;15.50;92.10;;;;;;5004607;28;19928;-88
2023/04/17 06:13:45;;;;;;;;;;;15.50;92.10;;;;;;5003258;28;19979;-88
2023/04/17 06:16:11;;;;;;;;;;;15.50;92.40;;;;;;5005331;28;19970;-88
2023/04/17 06:18:37;;;;;;;;;;;15.50;92.20;;;;;;5005400;28;20301;-88
2023/04/17 06:21:03;;;;;;;;;;;15.50;92.20;;;;;;5007767;28;20207;-88
2023/04/17 06:23:29;;;;;;;;;;;15.50;92.30;;;;;;5006699;28;20394;-88
2023/04/17 06:25:55;;;;;;;;;;;15.60;92.20;;;;;;5006689;28;20228;-88
2023/04/17 06:28:21;;;;;;;;;;;15.60;92.20;;;;;;5023286;28;20385;-88
2023/04/17 06:30:47;;;;;;;;;;;15.60;92.20;;;;;;5005388;28;20157;-88
2023/04/17 06:33:13;;;;;;;;;;;15.60;92.20;;;;;;5005069;28;20242;-88
2023/04/17 06:35:39;;;;;;;;;;;15.60;92.20;;;;;;5024535;28;19923;-88
2023/04/17 06:38:05;;;;;;;;;;;15.60;92.10;;;;;;5007098;28;19940;-88
2023/04/17 06:40:31;;;;;;;;;;;15.60;92.10;;;;;;5005520;28;19917;-88
2023/04/17 06:42:56;;;;;;;;;;;15.60;92.00;;;;;;5005376;28;19913;-88
2023/04/17 06:45:22;;;;;;;;;;;15.60;92.00;;;;;;5023482;28;19917;-88
2023/04/17 06:47:48;;;;;;;;;;;15.60;92.00;;;;;;5026409;28;19909;-88
2023/04/17 06:50:14;;;;;;;;;;;15.60;92.00;;;;;;5011277;28;19933;-88
2023/04/17 06:52:40;;;;;;;;;;;15.60;92.00;;;;;;5010522;28;20310;-88
2023/04/17 06:55:06;;;;;;;;;;;15.60;92.00;;;;;;5009446;28;20324;-89
2023/04/17 06:57:32;;;;;;;;;;;15.60;92.00;;;;;;5028042;28;19916;-88
2023/04/17 06:59:58;;;;;;;;;;;15.60;91.90;;;;;;5008941;28;20082;-88
2023/04/17 07:02:24;;;;;;;;;;;15.60;91.90;;;;;;5026899;28;19920;-88
2023/04/17 07:04:49;;;;;;;;;;;15.60;91.80;;;;;;5009613;28;20069;-88
2023/04/17 07:07:15;;;;;;;;;;;15.60;91.80;;;;;;5006517;28;20158;-88
2023/04/17 07:09:41;;;;;;;;;;;15.60;91.70;;;;;;5026132;28;20102;-88
2023/04/17 07:12:07;;;;;;;;;;;15.70;91.70;;;;;;5007988;28;19983;-88
2023/04/17 07:14:34;;;;;;;;;;;15.70;91.70;;;;;;5026586;28;20283;-88
2023/04/17 07:17:00;;;;;;;;;;;15.60;91.70;;;;;;5009719;28;19915;-88
2023/04/17 07:19:25;;;;;;;;;;;15.70;91.70;;;;;;5028853;28;19913;-88
2023/04/17 07:21:51;;;;;;;;;;;15.60;91.70;;;;;;5010885;28;20477;-88
2023/04/17 07:24:17;;;;;;;;;;;15.60;91.70;;;;;;5011273;28;19977;-88
2023/04/17 07:26:42;;;;;;;;;;;15.60;91.80;;;;;;5011435;28;19920;-88
2023/04/17 07:29:08;;;;;;;;;;;15.60;91.80;;;;;;5026181;28;20295;-88
2023/04/17 07:31:34;;;;;;;;;;;15.60;91.80;;;;;;5027470;28;19942;-89
2023/04/17 07:33:59;;;;;;;;;;;15.60;91.80;;;;;;5022769;28;19909;-88
2023/04/17 07:36:27;;;;;;;;;;;15.60;91.80;;;;;;5010004;28;19996;-88
2023/04/17 07:38:53;;;;;;;;;;;15.60;91.70;;;;;;5025423;28;20125;-88
2023/04/17 07:41:18;;;;;;;;;;;15.60;91.80;;;;;;5009722;28;19909;-88
2023/04/17 07:43:44;;;;;;;;;;;15.60;91.70;;;;;;5009022;28;20134;-89
2023/04/17 07:46:09;;;;;;;;;;;15.70;91.70;;;;;;5010074;28;19910;-89
2023/04/17 07:48:35;;;;;;;;;;;15.70;91.60;;;;;;5025908;28;20074;-89
2023/04/17 07:51:00;;;;;;;;;;;15.70;91.60;;;;;;5029050;28;20519;-89
2023/04/17 07:53:27;;;;;;;;;;;15.70;91.60;;;;;;5012716;28;19913;-89
2023/04/17 07:55:54;;;;;;;;;;;15.70;91.60;;;;;;5012671;28;19909;-89
2023/04/17 07:58:19;;;;;;;;;;;15.70;91.60;;;;;;5012737;28;20073;-89
2023/04/17 08:00:45;;;;;;;;;;;15.70;91.50;;;;;;5014057;28;19909;-88
2023/04/17 08:03:12;;;;;;;;;;;15.70;91.60;;;;;;5012751;28;20267;-89
2023/04/17 08:05:39;;;;;;;;;;;15.80;91.60;;;;;;5013877;28;19909;-88
2023/04/17 08:08:04;;;;;;;;;;;15.80;91.50;;;;;;5011394;28;19913;-89
2023/04/17 08:10:30;;;;;;;;;;;15.90;91.40;;;;;;5012283;28;19909;-89
2023/04/17 08:12:55;;;;;;;;;;;15.90;91.30;;;;;;5012602;28;20152;-89
2023/04/17 08:15:22;;;;;;;;;;;15.90;91.20;;;;;;5028868;28;19910;-88
2023/04/17 08:17:48;;;;;;;;;;;15.90;91.20;;;;;;5011515;28;19933;-88
2023/04/17 08:20:14;;;;;;;;;;;16.00;91.20;;;;;;5029058;28;20238;-89
2023/04/17 08:22:40;;;;;;;;;;;16.00;91.10;;;;;;5012151;28;19917;-89
2023/04/17 08:25:08;;;;;;;;;;;16.00;91.10;;;;;;5015637;28;19909;-89
2023/04/17 08:27:38;;;;;;;;;;;16.10;91.20;;;;;;5018379;28;19916;-89
2023/04/17 08:30:04;;;;;;;;;;;16.20;91.10;;;;;;5012878;28;19916;-88
2023/04/17 08:32:36;;;;;;;;;;;16.20;90.90;;;;;;5029018;28;20179;-88
2023/04/17 08:35:03;;;;;;;;;;;16.20;90.80;;;;;;5010914;28;19975;-88
2023/04/17 08:37:29;;;;;;;;;;;16.20;90.90;;;;;;5011775;28;20314;-89
2023/04/17 08:39:55;;;;;;;;;;;16.30;91.20;;;;;;5011425;28;20054;-89
2023/04/17 08:42:21;;;;;;;;;;;16.40;90.80;;;;;;5011783;28;20361;-88
2023/04/17 08:44:47;;;;;;;;;;;16.40;90.70;;;;;;5013681;28;19909;-88
2023/04/17 08:47:12;;;;;;;;;;;16.40;90.40;;;;;;5012312;28;19920;-89
2023/04/17 08:49:42;;;;;;;;;;;16.50;90.40;;;;;;5013201;28;19995;-88
2023/04/17 08:52:08;;;;;;;;;;;16.50;90.40;;;;;;5011634;28;20191;-88
2023/04/17 08:54:35;;;;;;;;;;;16.50;90.40;;;;;;5010588;28;19916;-88
2023/04/17 08:57:04;;;;;;;;;;;16.60;90.40;;;;;;5011083;28;19909;-88
2023/04/17 08:59:31;;;;;;;;;;;16.70;90.20;;;;;;5011271;28;19940;-89
2023/04/17 09:02:00;;;;;;;;;;;16.70;90.10;;;;;;5011228;28;20036;-89
2023/04/17 09:04:36;;;;;;;;;;;16.80;90.00;;;;;;5010601;28;19909;-88
2023/04/17 09:07:02;;;;;;;;;;;16.80;89.90;;;;;;5028094;28;20016;-88
2023/04/17 09:09:46;;;;;;;;;;;16.80;89.50;;;;;;5011042;28;20000;-89
2023/04/17 09:12:12;;;;;;;;;;;16.80;89.50;;;;;;5026734;28;19920;-89
2023/04/17 09:14:38;;;;;;;;;;;16.80;89.40;;;;;;5009881;28;19913;-89
2023/04/17 09:17:03;;;;;;;;;;;16.80;89.50;;;;;;5008859;28;20219;-89
2023/04/17 09:19:30;;;;;;;;;;;16.90;88.90;;;;;;5025694;28;20165;-89
2023/04/17 09:21:55;;;;;;;;;;;17.10;88.10;;;;;;5026014;28;20215;-89
2023/04/17 09:24:34;;;;;;;;;;;17.40;86.40;;;;;;5011665;28;19909;-89
2023/04/17 09:27:22;;;;;;;;;;;17.50;84.30;;;;;;5011958;28;20112;-89
2023/04/17 09:29:55;;;;;;;;;;;17.60;83.70;;;;;;5011091;28;19915;-89
2023/04/17 09:32:21;;;;;;;;;;;17.90;81.90;;;;;;5011536;28;20322;-89
2023/04/17 09:34:47;;;;;;;;;;;18.10;80.50;;;;;;5011898;28;19960;-89
2023/04/17 09:37:12;;;;;;;;;;;18.20;79.30;;;;;;5010490;28;19909;-88
2023/04/17 09:39:39;;;;;;;;;;;18.40;77.70;;;;;;5027794;28;20019;-88
2023/04/17 09:42:05;;;;;;;;;;;18.40;76.90;;;;;;5011111;28;20162;-88
2023/04/17 09:44:30;;;;;;;;;;;18.70;75.60;;;;;;5012942;28;19948;-89
2023/04/17 09:46:56;;;;;;;;;;;18.90;73.60;;;;;;5011941;28;20154;-89
2023/04/17 09:49:42;;;;;;;;;;;19.00;73.00;;;;;;5027718;28;20297;-89
2023/04/17 09:52:08;;;;;;;;;;;19.40;70.70;;;;;;5007625;28;19998;-89
2023/04/17 09:54:37;;;;;;;;;;;19.80;68.70;;;;;;5024096;28;20069;-89
2023/04/17 09:57:07;;;;;;;;;;;20.20;66.60;;;;;;5009032;28;20116;-89
2023/04/17 09:59:47;;;;;;;;;;;21.00;63.50;;;;;;5024524;28;20162;-89
2023/04/17 10:02:14;;;;;;;;;;;21.60;60.20;;;;;;5024358;28;19910;-89
2023/04/17 10:04:40;;;;;;;;;;;21.20;59.20;;;;;;5006943;28;19936;-89
2023/04/17 10:07:06;;;;;;;;;;;20.80;60.40;;;;;;5008001;28;19909;-91
2023/04/17 10:09:32;;;;;;;;;;;20.40;60.80;;;;;;5009511;28;19919;-89
2023/04/17 10:11:59;;;;;;;;;;;19.90;62.40;;;;;;5007704;28;20027;-89
2023/04/17 10:14:31;;;;;;;;;;;19.70;63.90;;;;;;5005805;28;20280;-90
2023/04/17 10:16:57;;;;;;;;;;;19.60;64.20;;;;;;5009808;28;20215;-89
2023/04/17 10:19:30;;;;;;;;;;;19.60;64.40;;;;;;5007206;28;20277;-89
2023/04/17 10:22:14;;;;;;;;;;;19.50;65.00;;;;;;5006613;28;19909;-89
2023/04/17 10:24:40;;;;;;;;;;;19.50;65.10;;;;;;5007159;28;20366;-89
2023/04/17 10:27:25;;;;;;;;;;;19.60;65.20;;;;;;4987344;28;19910;-90
2023/04/17 10:29:51;;;;;;;;;;;19.60;65.10;;;;;;4989087;28;19975;-89
2023/04/17 10:32:17;;;;;;;;;;;19.60;65.20;;;;;;4991776;28;20172;-89
2023/04/17 10:34:43;;;;;;;;;;;19.60;65.20;;;;;;5007859;28;19959;-90
2023/04/17 10:37:14;;;;;;;;;;;19.60;65.10;;;;;;5003639;28;19909;-89
2023/04/17 10:39:57;;;;;;;;;;;19.50;65.40;;;;;;5002622;28;19914;-90
2023/04/17 10:42:24;;;;;;;;;;;19.40;65.80;;;;;;4984885;28;19913;-90
2023/04/17 10:44:50;;;;;;;;;;;19.30;66.30;;;;;;4995152;28;19917;-89
2023/04/17 10:47:20;;;;;;;;;;;19.20;66.50;;;;;;5011127;28;19932;-89
2023/04/17 10:49:53;;;;;;;;;;;19.20;66.90;;;;;;5010509;28;20497;-89
2023/04/17 10:52:31;;;;;;;;;;;19.20;67.10;;;;;;5012966;28;19909;-89
2023/04/17 10:55:19;;;;;;;;;;;19.30;67.10;;;;;;5012703;28;19945;-89
2023/04/17 10:57:56;;;;;;;;;;;19.20;67.10;;;;;;5000415;28;19910;-89
2023/04/17 11:00:32;;;;;;;;;;;19.20;67.50;;;;;;5005908;28;20016;-90
2023/04/17 11:02:59;;;;;;;;;;;19.10;67.70;;;;;;5004304;28;19909;-89
2023/04/17 11:05:25;;;;;;;;;;;19.20;67.80;;;;;;5001828;28;19909;-90
2023/04/17 11:07:51;;;;;;;;;;;19.20;67.80;;;;;;5002979;28;19909;-90
2023/04/17 11:10:23;;;;;;;;;;;19.30;67.40;;;;;;5002251;28;20295;-89
2023/04/17 11:12:52;;;;;;;;;;;19.30;67.10;;;;;;5001724;28;19917;-88
2023/04/17 11:15:28;;;;;;;;;;;19.30;67.00;;;;;;4999683;28;20195;-88
2023/04/17 11:17:54;;;;;;;;;;;19.30;67.10;;;;;;5000562;28;20299;-88
2023/04/17 11:20:22;;;;;;;;;;;19.30;67.30;;;;;;5004138;28;19924;-88
2023/04/17 11:22:47;;;;;;;;;;;19.30;67.40;;;;;;5003698;28;19917;-88
2023/04/17 11:25:20;;;;;;;;;;;19.30;67.40;;;;;;5000149;28;19909;-90
2023/04/17 11:27:46;;;;;;;;;;;19.30;67.40;;;;;;5000658;28;19956;-88
2023/04/17 11:30:11;;;;;;;;;;;19.30;67.20;;;;;;5002309;28;19949;-90
2023/04/17 11:32:37;;;;;;;;;;;19.30;67.10;;;;;;4999681;28;19917;-89
2023/04/17 11:35:03;;;;;;;;;;;19.30;66.90;;;;;;5002747;28;19916;-89
2023/04/17 11:37:29;;;;;;;;;;;19.30;67.00;;;;;;5004637;28;19909;-88
2023/04/17 11:40:00;;;;;;;;;;;19.30;66.70;;;;;;5003711;28;20110;-89
2023/04/17 11:42:26;;;;;;;;;;;19.30;66.90;;;;;;5003015;28;19960;-90
2023/04/17 11:44:51;;;;;;;;;;;19.30;66.60;;;;;;5004477;28;20278;-89
2023/04/17 11:47:18;;;;;;;;;;;19.30;66.30;;;;;;5005875;28;20094;-91
2023/04/17 11:49:45;;;;;;;;;;;19.20;66.30;;;;;;5002731;28;19940;-90
2023/04/17 11:52:11;;;;;;;;;;;19.20;66.20;;;;;;5000175;28;19909;-89
2023/04/17 11:54:37;;;;;;;;;;;19.20;65.70;;;;;;5002467;28;19921;-89
2023/04/17 11:57:04;;;;;;;;;;;19.20;65.90;;;;;;5002233;28;20008;-89
2023/04/17 11:59:30;;;;;;;;;;;19.20;66.30;;;;;;5004207;28;20173;-89
2023/04/17 12:01:55;;;;;;;;;;;19.20;66.00;;;;;;5002091;28;20411;-90
2023/04/17 12:04:22;;;;;;;;;;;19.20;65.70;;;;;;5004965;28;20086;-89
2023/04/17 12:06:48;;;;;;;;;;;19.20;65.90;;;;;;5006007;28;20318;-90
2023/04/17 12:09:20;;;;;;;;;;;19.20;65.70;;;;;;5007718;28;20030;-89
2023/04/17 12:11:47;;;;;;;;;;;19.20;66.00;;;;;;5006098;28;19909;-89
2023/04/17 12:14:12;;;;;;;;;;;19.10;65.50;;;;;;5006008;28;19917;-89
2023/04/17 12:16:38;;;;;;;;;;;19.10;65.50;;;;;;5004880;28;19914;-89
2023/04/17 12:19:03;;;;;;;;;;;19.10;65.40;;;;;;5006390;28;19923;-89
2023/04/17 12:21:30;;;;;;;;;;;19.10;65.70;;;;;;5005502;28;19916;-88
2023/04/17 12:23:55;;;;;;;;;;;19.00;66.20;;;;;;5005717;28;20146;-89
2023/04/17 12:26:21;;;;;;;;;;;19.00;66.50;;;;;;5004624;28;20306;-90
2023/04/17 12:28:46;;;;;;;;;;;19.00;66.10;;;;;;5005553;28;20102;-89
2023/04/17 12:31:13;;;;;;;;;;;19.00;66.10;;;;;;5006589;28;20011;-89
2023/04/17 12:33:39;;;;;;;;;;;18.90;66.40;;;;;;5018463;28;19921;-90
2023/04/17 12:36:05;;;;;;;;;;;18.90;66.40;;;;;;5009016;28;20313;-90
2023/04/17 12:38:31;;;;;;;;;;;18.80;66.00;;;;;;5005970;28;20384;-89
2023/04/17 12:40:57;;;;;;;;;;;18.80;66.20;;;;;;5003143;28;19918;-89
2023/04/17 12:43:22;;;;;;;;;;;18.80;66.10;;;;;;5004615;28;19992;-88
2023/04/17 12:45:48;;;;;;;;;;;18.70;66.00;;;;;;5005579;28;19910;-89
2023/04/17 12:48:14;;;;;;;;;;;18.70;66.70;;;;;;5005682;28;19976;-87
2023/04/17 12:50:43;;;;;;;;;;;18.70;66.50;;;;;;5002958;28;20008;-86
2023/04/17 12:53:12;;;;;;;;;;;18.70;66.20;;;;;;5002956;28;19925;-86
2023/04/17 12:55:42;;;;;;;;;;;18.70;65.60;;;;;;5004631;28;20264;-88
2023/04/17 12:58:11;;;;;;;;;;;18.70;65.80;;;;;;5003932;28;20043;-88
2023/04/17 13:00:38;;;;;;;;;;;18.60;66.10;;;;;;5003184;28;20420;-88
2023/04/17 13:03:04;;;;;;;;;;;18.60;66.40;;;;;;5002731;28;19910;-89
2023/04/17 13:05:30;;;;;;;;;;;18.60;66.20;;;;;;5003583;28;19967;-87
2023/04/17 13:07:56;;;;;;;;;;;18.50;66.10;;;;;;5003999;28;20016;-87
2023/04/17 13:10:22;;;;;;;;;;;18.50;66.10;;;;;;5004518;28;19917;-88
2023/04/17 13:12:48;;;;;;;;;;;18.50;65.70;;;;;;5003101;28;19975;-88
2023/04/17 13:15:13;;;;;;;;;;;18.60;65.90;;;;;;5001708;28;20214;-88
2023/04/17 13:17:39;;;;;;;;;;;18.60;65.90;;;;;;5004539;28;19921;-87
2023/04/17 13:20:06;;;;;;;;;;;18.60;66.00;;;;;;5006199;28;19928;-88
2023/04/17 13:22:32;;;;;;;;;;;18.60;66.60;;;;;;5009322;28;19909;-87
2023/04/17 13:24:58;;;;;;;;;;;18.60;65.90;;;;;;5005477;28;20176;-87
2023/04/17 13:27:24;;;;;;;;;;;18.60;66.00;;;;;;5007803;28;19909;-88
2023/04/17 13:29:50;;;;;;;;;;;18.60;66.20;;;;;;5006099;28;20119;-88
2023/04/17 13:32:15;;;;;;;;;;;18.60;65.90;;;;;;5007121;28;19952;-88
2023/04/17 13:34:41;;;;;;;;;;;18.60;65.80;;;;;;5043910;28;20008;-90
2023/04/17 13:37:07;;;;;;;;;;;18.50;65.70;;;;;;5025169;28;20182;-88
2023/04/17 13:39:33;;;;;;;;;;;18.50;65.70;;;;;;5023781;28;19959;-88
2023/04/17 13:41:59;;;;;;;;;;;18.40;65.80;;;;;;5026782;28;20092;-88
2023/04/17 13:44:24;;;;;;;;;;;18.40;66.00;;;;;;5042002;28;20199;-88
2023/04/17 13:46:50;;;;;;;;;;;18.40;66.10;;;;;;5046839;28;19920;-90
2023/04/17 13:49:16;;;;;;;;;;;18.30;66.10;;;;;;5044489;28;19917;-90
2023/04/17 13:51:42;;;;;;;;;;;18.30;66.20;;;;;;5043362;28;19913;-89
2023/04/17 13:54:08;;;;;;;;;;;18.30;66.10;;;;;;5026825;28;20267;-89
2023/04/17 13:56:33;;;;;;;;;;;18.30;65.80;;;;;;5025649;28;20188;-89
2023/04/17 13:59:00;;;;;;;;;;;18.30;65.90;;;;;;5024995;28;19924;-89
2023/04/17 14:01:25;;;;;;;;;;;18.30;65.90;;;;;;5043286;28;20209;-89
2023/04/17 14:03:51;;;;;;;;;;;18.30;66.00;;;;;;5024710;28;19916;-89
2023/04/17 14:06:16;;;;;;;;;;;18.30;66.00;;;;;;5025093;28;19916;-89
2023/04/17 14:08:44;;;;;;;;;;;18.30;65.90;;;;;;5044291;28;19974;-89
2023/04/17 14:11:09;;;;;;;;;;;18.30;65.60;;;;;;5025514;28;19944;-90
2023/04/17 14:13:35;;;;;;;;;;;18.30;65.70;;;;;;5023069;28;20342;-89